createdAt,value
2018-04-19T00:01:40.547Z,6.89
2018-04-19T00:07:30.507Z,4.46
2018-04-19T00:13:20.772Z,5.28
2018-04-19T00:19:10.682Z,5.1
2018-04-19T00:25:00.869Z,6.03
2018-04-19T00:30:50.831Z,9.24
2018-04-19T00:36:41.200Z,7.43
2018-04-19T00:42:31.139Z,6.03
2018-04-19T00:48:21.509Z,8.02
2018-04-19T00:54:11.434Z,5.74
2018-04-19T01:00:01.738Z,5.37
2018-04-19T01:05:51.714Z,6.38
2018-04-19T01:11:42.010Z,6.43
2018-04-19T01:17:32.048Z,6.6
2018-04-19T01:23:22.285Z,8.15
2018-04-19T01:29:12.342Z,5.37
2018-04-19T01:35:02.609Z,10.02
2018-04-19T01:40:52.606Z,6.51
2018-04-19T01:46:42.839Z,5.71
2018-04-19T01:52:32.905Z,5.01
2018-04-19T01:58:23.046Z,6.81
2018-04-19T02:04:13.029Z,6.7
2018-04-19T02:10:03.255Z,13.15
2018-04-19T02:15:53.223Z,8
2018-04-19T02:21:43.364Z,6.45
2018-04-19T02:27:33.366Z,9.75
2018-04-19T02:33:23.574Z,6.57
2018-04-19T02:39:13.626Z,5.34
2018-04-19T02:50:53.890Z,14.83
2018-04-19T02:56:44.155Z,8.35
2018-04-19T03:08:24.467Z,8.28
2018-04-19T03:14:14.549Z,10.3
2018-04-19T03:20:04.632Z,6.79
2018-04-19T03:25:54.647Z,5.97
2018-04-19T03:31:46.203Z,6.06
2018-04-19T03:37:36.156Z,6.68
2018-04-19T03:43:27.743Z,6.42
2018-04-19T03:49:17.771Z,7.81
2018-04-19T03:55:07.959Z,7.22
2018-04-19T04:00:57.929Z,8.66
2018-04-19T04:06:48.146Z,7.96
2018-04-19T04:12:38.105Z,5.01
2018-04-19T04:18:28.263Z,6.91
2018-04-19T04:24:18.292Z,8.38
2018-04-19T04:30:08.639Z,5.08
2018-04-19T04:35:58.534Z,7.43
2018-04-19T04:41:48.637Z,9.42
2018-04-19T04:47:38.667Z,5.77
2018-04-19T04:53:29.017Z,4.87
2018-04-19T04:59:19.014Z,4.54
2018-04-19T05:05:09.239Z,11.9
2018-04-19T05:10:59.131Z,5.68
2018-04-19T05:16:49.341Z,8.77
2018-04-19T05:23:14.822Z,13.79
2018-04-19T05:28:29.560Z,6.09
2018-04-19T05:34:19.489Z,5.62
2018-04-19T05:40:09.689Z,6.47
2018-04-19T05:44:17.208Z,8.48
2018-04-19T05:50:07.238Z,6.11
2018-04-19T05:55:57.355Z,8.46
2018-04-19T06:01:47.399Z,10.69
2018-04-19T06:07:37.679Z,6.19
2018-04-19T06:13:27.612Z,4.08
2018-04-19T06:19:17.856Z,5
2018-04-19T06:25:07.799Z,7.72
2018-04-19T06:30:58.090Z,6.8
2018-04-19T06:36:48.072Z,6.38
2018-04-19T06:42:38.196Z,6.19
2018-04-19T06:48:28.217Z,6.85
2018-04-19T06:54:18.510Z,8.97
2018-04-19T07:00:08.544Z,9.41
2018-04-19T07:05:58.701Z,9.92
2018-04-19T07:11:48.673Z,10.6
2018-04-19T07:17:38.865Z,6.1
2018-04-19T07:23:28.870Z,7.16
2018-04-19T07:29:19.084Z,6.71
2018-04-19T07:35:09.078Z,10.82
2018-04-19T07:40:59.238Z,9.79
2018-04-19T07:46:49.354Z,7.76
2018-04-19T07:52:39.500Z,9.04
2018-04-19T07:58:29.425Z,5.54
2018-04-19T08:04:19.658Z,9.07
2018-04-19T08:10:09.598Z,11.16
2018-04-19T08:15:59.765Z,8.79
2018-04-19T08:21:49.810Z,11.49
2018-04-19T08:27:39.960Z,10.17
2018-04-19T08:33:29.943Z,9.44
2018-04-19T08:39:20.186Z,8.73
2018-04-19T08:45:10.149Z,10.66
2018-04-19T08:56:50.388Z,10.2
2018-04-19T09:02:40.597Z,7.93
2018-04-19T09:08:30.705Z,10.15
2018-04-19T09:14:22.199Z,8.41
2018-04-19T09:20:12.098Z,15.57
2018-04-19T09:26:02.250Z,9.67
2018-04-19T09:31:52.207Z,8.82
2018-04-19T09:37:42.547Z,6.2
2018-04-19T09:43:32.399Z,7.15
2018-04-19T09:49:22.678Z,6.21
2018-04-19T09:55:12.723Z,7.74
2018-04-19T10:01:03.021Z,8.25
2018-04-19T10:06:52.949Z,10.14
2018-04-19T10:12:43.121Z,8.48
2018-04-19T10:18:33.285Z,7.09
2018-04-19T10:24:23.282Z,8.35
2018-04-19T10:30:13.285Z,10.09
2018-04-19T10:41:53.584Z,46.47
2018-04-19T10:47:43.600Z,10.14
2018-04-19T10:53:33.606Z,10.5
2018-04-19T10:59:23.904Z,13.68
2018-04-19T11:11:04.084Z,11.56
2018-04-19T11:16:54.038Z,9.76
2018-04-19T11:22:44.242Z,11.7
2018-04-19T11:28:34.382Z,13.57
2018-04-19T11:34:24.635Z,10.21
2018-04-19T11:40:14.519Z,15.39
2018-04-19T11:46:04.566Z,11.4
2018-04-19T11:51:54.575Z,7.83
2018-04-19T11:57:46.233Z,8.42
2018-04-19T12:03:36.267Z,10.15
2018-04-19T12:09:26.319Z,21.74
2018-04-19T12:15:16.327Z,8.05
2018-04-19T12:21:07.895Z,14.01
2018-04-19T12:26:57.837Z,8.35
2018-04-19T12:32:48.041Z,10.44
2018-04-19T12:38:38.005Z,10.9
2018-04-19T12:44:28.283Z,11.95
2018-04-19T12:50:18.250Z,9.75
2018-04-19T12:56:08.420Z,11.48
2018-04-19T13:07:48.649Z,9.29
2018-04-19T13:13:38.734Z,12.34
2018-04-19T13:19:28.879Z,10.59
2018-04-19T13:25:18.812Z,30.16
2018-04-19T13:31:10.376Z,10.41
2018-04-19T13:37:00.380Z,8.43
2018-04-19T13:42:50.569Z,7.65
2018-04-19T13:48:40.590Z,16.04
2018-04-19T13:54:32.138Z,8.2
2018-04-19T14:00:22.155Z,6.76
2018-04-19T14:06:12.423Z,7.25
2018-04-19T14:12:02.398Z,11.31
2018-04-19T14:17:52.434Z,6.71
2018-04-19T14:23:42.409Z,6.75
2018-04-19T14:29:32.662Z,10.16
2018-04-19T14:35:22.622Z,8.28
2018-04-19T14:47:02.959Z,9.72
2018-04-19T14:52:53.119Z,7.57
2018-04-19T15:04:33.289Z,9.29
2018-04-19T15:10:23.278Z,9.63
2018-04-19T15:16:13.592Z,9.69
2018-04-19T15:22:03.621Z,7.81
2018-04-19T15:27:53.759Z,10.12
2018-04-19T15:33:43.704Z,13.7
2018-04-19T15:39:33.872Z,13.47
2018-04-19T15:45:23.925Z,13.67
2018-04-19T15:51:14.103Z,7.74
2018-04-19T15:57:04.167Z,9.97
2018-04-19T16:02:55.757Z,10.95
2018-04-19T16:08:45.684Z,6.46
2018-04-19T16:14:35.843Z,8.63
2018-04-19T16:20:25.865Z,11.05
2018-04-19T16:26:16.034Z,8.27
2018-04-19T16:32:06.040Z,8.7
2018-04-19T16:37:57.641Z,8.8
2018-04-19T16:43:47.580Z,11.44
2018-04-19T16:49:37.729Z,27.46
2018-04-19T16:55:27.781Z,8.4
2018-04-19T17:07:07.934Z,9.44
2018-04-19T17:12:58.164Z,9.64
2018-04-19T17:18:48.154Z,10.7
2018-04-19T17:24:38.292Z,11.76
2018-04-19T17:30:28.298Z,12.44
2018-04-19T17:36:18.515Z,12.95
2018-04-19T17:42:08.556Z,9.01
2018-04-19T17:47:58.724Z,11.38
2018-04-19T17:53:48.660Z,16.78
2018-04-19T17:59:38.986Z,14.05
2018-04-19T18:05:29.017Z,14.9
2018-04-19T18:11:19.163Z,12.65
2018-04-19T18:17:09.181Z,18.33
2018-04-19T18:22:59.396Z,15.02
2018-04-19T18:28:49.456Z,13.66
2018-04-19T18:34:39.634Z,16.84
2018-04-19T18:40:29.589Z,18.87
2018-04-19T18:46:19.778Z,15.68
2018-04-19T18:52:09.815Z,14.14
2018-04-19T18:58:00.045Z,13.87
2018-04-19T19:03:50.034Z,16.83
2018-04-19T19:09:40.324Z,27.02
2018-04-19T19:21:21.793Z,24.18
2018-04-19T19:27:11.837Z,23.98
2018-04-19T19:33:03.347Z,26.03
2018-04-19T19:38:53.308Z,26.54
2018-04-19T19:44:43.590Z,21.43
2018-04-19T19:50:33.593Z,24.25
2018-04-19T19:56:31.909Z,18.52
2018-04-19T20:02:22.616Z,24.23
2018-04-19T20:08:13.346Z,18
2018-04-19T20:14:04.042Z,18.37
2018-04-19T20:19:54.769Z,20.5
2018-04-19T20:25:45.493Z,16.54
2018-04-19T20:31:36.224Z,14.15
2018-04-19T20:37:26.893Z,18.14
2018-04-19T20:43:17.685Z,16.98
2018-04-19T20:49:08.318Z,18.37
2018-04-19T20:54:59.046Z,28.92
2018-04-19T21:00:49.768Z,24.08
2018-04-19T21:06:40.424Z,25.84
2018-04-19T21:12:31.185Z,46.68
2018-04-19T21:18:21.843Z,119.07
2018-04-19T21:24:12.547Z,135.64
2018-04-19T21:30:03.227Z,94.56
2018-04-19T21:35:53.925Z,86.45
2018-04-19T21:41:44.634Z,94.14
2018-04-19T21:47:35.376Z,100.97
2018-04-19T21:53:26.096Z,121.49
2018-04-19T21:59:16.707Z,125.43
2018-04-19T22:05:07.493Z,116.53
2018-04-19T22:10:58.130Z,88.6
2018-04-19T22:16:48.863Z,40.98
2018-04-19T22:22:39.527Z,21.08
2018-04-19T22:28:30.180Z,26.27
2018-04-19T22:34:20.940Z,27.87
2018-04-19T22:40:11.614Z,30.42
2018-04-19T22:46:02.314Z,23.24
2018-04-19T22:51:53.043Z,23
2018-04-19T22:57:43.664Z,22.87
2018-04-19T23:03:34.385Z,21.1
2018-04-19T23:09:25.034Z,19.31
2018-04-19T23:15:15.847Z,15.41
2018-04-19T23:21:06.445Z,16.91
2018-04-19T23:26:57.142Z,19.3
2018-04-19T23:32:47.813Z,13.74
2018-04-19T23:38:38.522Z,14.33
2018-04-19T23:44:29.198Z,16.24
2018-04-19T23:50:19.863Z,13.47
2018-04-19T23:56:10.547Z,14.25
